sensor_id;sensor_type;location;lat;lon;timestamp;temperature;humidity
820;DHT22;392;48.838;2.322;2022-07-23T00:00:48;21.70;69.30
820;DHT22;392;48.838;2.322;2022-07-23T00:03:15;21.70;70.10
820;DHT22;392;48.838;2.322;2022-07-23T00:05:43;21.70;70.50
820;DHT22;392;48.838;2.322;2022-07-23T00:08:10;21.70;70.80
820;DHT22;392;48.838;2.322;2022-07-23T00:10:39;21.70;71.80
820;DHT22;392;48.838;2.322;2022-07-23T00:13:06;21.70;71.30
820;DHT22;392;48.838;2.322;2022-07-23T00:15:34;21.80;71.30
820;DHT22;392;48.838;2.322;2022-07-23T00:18:01;21.80;70.50
820;DHT22;392;48.838;2.322;2022-07-23T00:20:29;21.80;70.50
820;DHT22;392;48.838;2.322;2022-07-23T00:22:56;21.90;70.30
820;DHT22;392;48.838;2.322;2022-07-23T00:25:24;22.00;69.80
820;DHT22;392;48.838;2.322;2022-07-23T00:27:53;22.10;68.90
820;DHT22;392;48.838;2.322;2022-07-23T00:30:20;22.20;67.20
820;DHT22;392;48.838;2.322;2022-07-23T00:32:50;22.30;65.50
820;DHT22;392;48.838;2.322;2022-07-23T00:35:20;22.40;64.00
820;DHT22;392;48.838;2.322;2022-07-23T00:37:48;22.40;63.50
820;DHT22;392;48.838;2.322;2022-07-23T00:40:15;22.50;64.60
820;DHT22;392;48.838;2.322;2022-07-23T00:42:43;22.50;64.80
820;DHT22;392;48.838;2.322;2022-07-23T00:45:12;22.50;65.00
820;DHT22;392;48.838;2.322;2022-07-23T00:47:39;22.60;64.10
820;DHT22;392;48.838;2.322;2022-07-23T00:50:08;22.50;64.10
820;DHT22;392;48.838;2.322;2022-07-23T00:52:38;22.50;64.60
820;DHT22;392;48.838;2.322;2022-07-23T00:55:07;22.40;65.60
820;DHT22;392;48.838;2.322;2022-07-23T00:57:37;22.20;67.10
820;DHT22;392;48.838;2.322;2022-07-23T01:00:06;22.20;68.90
820;DHT22;392;48.838;2.322;2022-07-23T01:02:38;22.20;70.70
820;DHT22;392;48.838;2.322;2022-07-23T01:05:06;22.40;70.60
820;DHT22;392;48.838;2.322;2022-07-23T01:07:35;22.50;69.70
820;DHT22;392;48.838;2.322;2022-07-23T01:10:03;22.60;69.70
820;DHT22;392;48.838;2.322;2022-07-23T01:12:51;22.60;69.60
820;DHT22;392;48.838;2.322;2022-07-23T01:15:19;22.60;69.10
820;DHT22;392;48.838;2.322;2022-07-23T01:17:47;22.60;68.30
820;DHT22;392;48.838;2.322;2022-07-23T01:20:15;22.60;68.00
820;DHT22;392;48.838;2.322;2022-07-23T01:22:44;22.70;67.50
820;DHT22;392;48.838;2.322;2022-07-23T01:25:13;22.70;67.30
820;DHT22;392;48.838;2.322;2022-07-23T01:27:47;22.70;67.30
820;DHT22;392;48.838;2.322;2022-07-23T01:30:15;22.70;68.00
820;DHT22;392;48.838;2.322;2022-07-23T01:32:42;22.70;68.60
820;DHT22;392;48.838;2.322;2022-07-23T01:35:10;22.60;68.70
820;DHT22;392;48.838;2.322;2022-07-23T01:37:38;22.60;69.20
820;DHT22;392;48.838;2.322;2022-07-23T01:40:08;22.50;69.80
820;DHT22;392;48.838;2.322;2022-07-23T01:42:37;22.50;69.90
820;DHT22;392;48.838;2.322;2022-07-23T01:45:05;22.50;70.30
820;DHT22;392;48.838;2.322;2022-07-23T01:47:34;22.50;69.90
820;DHT22;392;48.838;2.322;2022-07-23T01:50:01;22.50;69.90
820;DHT22;392;48.838;2.322;2022-07-23T01:52:47;22.50;69.50
820;DHT22;392;48.838;2.322;2022-07-23T01:55:16;22.50;69.20
820;DHT22;392;48.838;2.322;2022-07-23T01:57:44;22.50;68.90
820;DHT22;392;48.838;2.322;2022-07-23T02:00:13;22.50;69.10
820;DHT22;392;48.838;2.322;2022-07-23T02:02:45;22.40;69.40
820;DHT22;392;48.838;2.322;2022-07-23T02:05:13;22.50;68.90
820;DHT22;392;48.838;2.322;2022-07-23T02:07:40;22.50;68.90
820;DHT22;392;48.838;2.322;2022-07-23T02:10:08;22.40;69.30
820;DHT22;392;48.838;2.322;2022-07-23T02:12:38;22.30;69.90
820;DHT22;392;48.838;2.322;2022-07-23T02:15:07;22.30;69.70
820;DHT22;392;48.838;2.322;2022-07-23T02:17:34;22.30;69.80
820;DHT22;392;48.838;2.322;2022-07-23T02:20:02;22.30;69.90
820;DHT22;392;48.838;2.322;2022-07-23T02:22:30;22.30;69.50
820;DHT22;392;48.838;2.322;2022-07-23T02:24:58;22.30;69.60
820;DHT22;392;48.838;2.322;2022-07-23T02:27:25;22.30;69.60
820;DHT22;392;48.838;2.322;2022-07-23T02:29:55;22.40;69.60
820;DHT22;392;48.838;2.322;2022-07-23T02:32:23;22.40;68.40
820;DHT22;392;48.838;2.322;2022-07-23T02:34:51;22.50;67.00
820;DHT22;392;48.838;2.322;2022-07-23T02:37:20;22.50;66.90
820;DHT22;392;48.838;2.322;2022-07-23T02:39:47;22.40;66.20
820;DHT22;392;48.838;2.322;2022-07-23T02:42:15;22.50;65.20
820;DHT22;392;48.838;2.322;2022-07-23T02:44:43;22.50;64.80
820;DHT22;392;48.838;2.322;2022-07-23T02:47:12;22.60;63.80
820;DHT22;392;48.838;2.322;2022-07-23T02:49:39;22.60;63.00
820;DHT22;392;48.838;2.322;2022-07-23T02:52:07;22.60;62.80
820;DHT22;392;48.838;2.322;2022-07-23T02:54:36;22.50;63.40
820;DHT22;392;48.838;2.322;2022-07-23T02:57:04;22.40;64.10
820;DHT22;392;48.838;2.322;2022-07-23T02:59:31;22.40;63.50
820;DHT22;392;48.838;2.322;2022-07-23T03:01:58;22.40;62.60
820;DHT22;392;48.838;2.322;2022-07-23T03:04:29;22.30;62.90
820;DHT22;392;48.838;2.322;2022-07-23T03:06:56;22.30;63.10
820;DHT22;392;48.838;2.322;2022-07-23T03:09:25;22.30;62.90
820;DHT22;392;48.838;2.322;2022-07-23T03:11:52;22.30;64.10
820;DHT22;392;48.838;2.322;2022-07-23T03:14:19;22.30;64.30
820;DHT22;392;48.838;2.322;2022-07-23T03:16:47;22.40;64.30
820;DHT22;392;48.838;2.322;2022-07-23T03:19:15;22.40;64.40
820;DHT22;392;48.838;2.322;2022-07-23T03:21:44;22.40;64.90
820;DHT22;392;48.838;2.322;2022-07-23T03:24:12;22.40;65.10
820;DHT22;392;48.838;2.322;2022-07-23T03:26:40;22.30;65.20
820;DHT22;392;48.838;2.322;2022-07-23T03:29:07;22.20;66.40
820;DHT22;392;48.838;2.322;2022-07-23T03:31:35;22.10;68.30
820;DHT22;392;48.838;2.322;2022-07-23T03:34:02;22.10;69.20
820;DHT22;392;48.838;2.322;2022-07-23T03:36:30;22.20;68.20
820;DHT22;392;48.838;2.322;2022-07-23T03:38:59;22.30;67.20
820;DHT22;392;48.838;2.322;2022-07-23T03:41:27;22.20;67.30
820;DHT22;392;48.838;2.322;2022-07-23T03:43:54;22.30;66.90
820;DHT22;392;48.838;2.322;2022-07-23T03:46:21;22.20;67.00
820;DHT22;392;48.838;2.322;2022-07-23T03:48:48;22.30;66.20
820;DHT22;392;48.838;2.322;2022-07-23T03:51:16;22.30;65.00
820;DHT22;392;48.838;2.322;2022-07-23T03:53:43;22.30;64.20
820;DHT22;392;48.838;2.322;2022-07-23T03:56:11;22.40;63.80
820;DHT22;392;48.838;2.322;2022-07-23T03:58:39;22.30;63.50
820;DHT22;392;48.838;2.322;2022-07-23T04:01:06;22.20;64.40
820;DHT22;392;48.838;2.322;2022-07-23T04:03:33;22.10;64.80
820;DHT22;392;48.838;2.322;2022-07-23T04:06:01;22.10;64.90
820;DHT22;392;48.838;2.322;2022-07-23T04:08:29;22.10;65.00
820;DHT22;392;48.838;2.322;2022-07-23T04:10:59;22.10;65.60
820;DHT22;392;48.838;2.322;2022-07-23T04:13:28;22.10;65.40
820;DHT22;392;48.838;2.322;2022-07-23T04:15:55;22.10;64.70
820;DHT22;392;48.838;2.322;2022-07-23T04:18:22;22.10;64.70
820;DHT22;392;48.838;2.322;2022-07-23T04:20:59;22.00;64.70
820;DHT22;392;48.838;2.322;2022-07-23T04:23:27;22.10;64.00
820;DHT22;392;48.838;2.322;2022-07-23T04:25:54;22.10;62.60
820;DHT22;392;48.838;2.322;2022-07-23T04:28:22;22.20;61.60
820;DHT22;392;48.838;2.322;2022-07-23T04:30:51;22.20;61.20
820;DHT22;392;48.838;2.322;2022-07-23T04:33:18;22.20;61.30
820;DHT22;392;48.838;2.322;2022-07-23T04:35:48;22.10;61.80
820;DHT22;392;48.838;2.322;2022-07-23T04:38:19;22.00;63.10
820;DHT22;392;48.838;2.322;2022-07-23T04:40:49;21.90;64.00
820;DHT22;392;48.838;2.322;2022-07-23T04:43:17;22.00;64.00
820;DHT22;392;48.838;2.322;2022-07-23T04:45:46;22.10;63.00
820;DHT22;392;48.838;2.322;2022-07-23T04:48:15;22.10;62.90
820;DHT22;392;48.838;2.322;2022-07-23T04:50:42;22.10;62.90
820;DHT22;392;48.838;2.322;2022-07-23T04:53:17;22.00;62.80
820;DHT22;392;48.838;2.322;2022-07-23T04:55:47;22.10;61.80
820;DHT22;392;48.838;2.322;2022-07-23T04:58:14;22.20;60.10
820;DHT22;392;48.838;2.322;2022-07-23T05:00:42;22.20;60.10
820;DHT22;392;48.838;2.322;2022-07-23T05:03:10;22.20;59.90
820;DHT22;392;48.838;2.322;2022-07-23T05:05:39;22.30;59.50
820;DHT22;392;48.838;2.322;2022-07-23T05:08:13;22.40;59.10
820;DHT22;392;48.838;2.322;2022-07-23T05:10:43;22.40;58.70
820;DHT22;392;48.838;2.322;2022-07-23T05:13:10;22.50;58.90
820;DHT22;392;48.838;2.322;2022-07-23T05:15:38;22.50;57.80
820;DHT22;392;48.838;2.322;2022-07-23T05:18:05;22.60;58.00
820;DHT22;392;48.838;2.322;2022-07-23T05:20:33;22.60;58.30
820;DHT22;392;48.838;2.322;2022-07-23T05:23:01;22.50;58.20
820;DHT22;392;48.838;2.322;2022-07-23T05:25:29;22.60;57.80
820;DHT22;392;48.838;2.322;2022-07-23T05:27:56;22.60;57.30
820;DHT22;392;48.838;2.322;2022-07-23T05:30:24;22.60;57.10
820;DHT22;392;48.838;2.322;2022-07-23T05:32:56;22.50;57.00
820;DHT22;392;48.838;2.322;2022-07-23T05:35:24;22.50;56.90
820;DHT22;392;48.838;2.322;2022-07-23T05:38:07;22.50;56.70
820;DHT22;392;48.838;2.322;2022-07-23T05:40:35;22.60;56.60
820;DHT22;392;48.838;2.322;2022-07-23T05:43:03;22.60;56.70
820;DHT22;392;48.838;2.322;2022-07-23T05:45:30;22.50;56.90
820;DHT22;392;48.838;2.322;2022-07-23T05:47:58;22.50;57.40
820;DHT22;392;48.838;2.322;2022-07-23T05:50:31;22.60;56.50
820;DHT22;392;48.838;2.322;2022-07-23T05:53:07;22.70;55.70
820;DHT22;392;48.838;2.322;2022-07-23T05:55:49;22.80;55.80
820;DHT22;392;48.838;2.322;2022-07-23T05:58:17;22.80;55.50
820;DHT22;392;48.838;2.322;2022-07-23T06:00:44;22.80;55.30
820;DHT22;392;48.838;2.322;2022-07-23T06:03:12;22.80;55.60
820;DHT22;392;48.838;2.322;2022-07-23T06:05:39;22.70;56.10
820;DHT22;392;48.838;2.322;2022-07-23T06:08:09;22.70;56.40
820;DHT22;392;48.838;2.322;2022-07-23T06:10:36;22.70;56.80
820;DHT22;392;48.838;2.322;2022-07-23T06:13:04;22.60;57.30
820;DHT22;392;48.838;2.322;2022-07-23T06:15:32;22.70;58.10
820;DHT22;392;48.838;2.322;2022-07-23T06:17:59;22.70;58.10
820;DHT22;392;48.838;2.322;2022-07-23T06:20:27;22.70;58.30
820;DHT22;392;48.838;2.322;2022-07-23T06:22:56;22.70;58.50
820;DHT22;392;48.838;2.322;2022-07-23T06:25:25;22.70;58.40
820;DHT22;392;48.838;2.322;2022-07-23T06:27:53;22.70;57.70
820;DHT22;392;48.838;2.322;2022-07-23T06:30:20;22.80;58.30
820;DHT22;392;48.838;2.322;2022-07-23T06:32:49;22.80;57.10
820;DHT22;392;48.838;2.322;2022-07-23T06:35:16;22.80;56.80
820;DHT22;392;48.838;2.322;2022-07-23T06:37:46;22.80;56.90
820;DHT22;392;48.838;2.322;2022-07-23T06:40:13;22.80;56.90
820;DHT22;392;48.838;2.322;2022-07-23T06:42:42;22.70;57.60
820;DHT22;392;48.838;2.322;2022-07-23T06:45:15;22.60;58.70
820;DHT22;392;48.838;2.322;2022-07-23T06:47:43;22.40;59.90
820;DHT22;392;48.838;2.322;2022-07-23T06:50:10;22.50;60.00
820;DHT22;392;48.838;2.322;2022-07-23T06:52:38;22.40;60.30
820;DHT22;392;48.838;2.322;2022-07-23T06:55:06;22.40;61.00
820;DHT22;392;48.838;2.322;2022-07-23T06:57:33;22.30;61.70
820;DHT22;392;48.838;2.322;2022-07-23T07:00:03;22.40;62.50
820;DHT22;392;48.838;2.322;2022-07-23T07:02:31;22.50;61.00
820;DHT22;392;48.838;2.322;2022-07-23T07:04:58;22.70;59.80
820;DHT22;392;48.838;2.322;2022-07-23T07:07:26;22.80;58.50
820;DHT22;392;48.838;2.322;2022-07-23T07:09:53;22.80;57.70
820;DHT22;392;48.838;2.322;2022-07-23T07:12:20;22.80;57.60
820;DHT22;392;48.838;2.322;2022-07-23T07:14:48;22.90;57.10
820;DHT22;392;48.838;2.322;2022-07-23T07:17:16;22.90;57.20
820;DHT22;392;48.838;2.322;2022-07-23T07:19:44;22.90;57.40
820;DHT22;392;48.838;2.322;2022-07-23T07:22:11;22.80;58.10
820;DHT22;392;48.838;2.322;2022-07-23T07:24:39;22.80;58.10
820;DHT22;392;48.838;2.322;2022-07-23T07:27:06;22.90;57.90
820;DHT22;392;48.838;2.322;2022-07-23T07:29:34;23.00;57.40
820;DHT22;392;48.838;2.322;2022-07-23T07:32:01;22.90;57.40
820;DHT22;392;48.838;2.322;2022-07-23T07:34:30;22.90;57.40
820;DHT22;392;48.838;2.322;2022-07-23T07:36:57;22.90;58.30
820;DHT22;392;48.838;2.322;2022-07-23T07:39:24;22.80;57.80
820;DHT22;392;48.838;2.322;2022-07-23T07:41:51;22.80;58.00
820;DHT22;392;48.838;2.322;2022-07-23T07:44:19;22.80;58.20
820;DHT22;392;48.838;2.322;2022-07-23T07:46:46;22.80;57.80
820;DHT22;392;48.838;2.322;2022-07-23T07:49:14;22.70;58.90
820;DHT22;392;48.838;2.322;2022-07-23T07:51:44;22.60;60.00
820;DHT22;392;48.838;2.322;2022-07-23T07:54:11;22.60;60.10
820;DHT22;392;48.838;2.322;2022-07-23T07:56:39;22.60;60.10
820;DHT22;392;48.838;2.322;2022-07-23T07:59:06;22.70;58.90
820;DHT22;392;48.838;2.322;2022-07-23T08:01:34;22.90;58.00
820;DHT22;392;48.838;2.322;2022-07-23T08:04:01;22.90;58.00
820;DHT22;392;48.838;2.322;2022-07-23T08:06:28;22.90;58.10
820;DHT22;392;48.838;2.322;2022-07-23T08:08:57;23.00;58.30
820;DHT22;392;48.838;2.322;2022-07-23T08:11:24;23.10;57.80
820;DHT22;392;48.838;2.322;2022-07-23T08:13:51;23.50;56.90
820;DHT22;392;48.838;2.322;2022-07-23T08:16:19;23.90;52.70
820;DHT22;392;48.838;2.322;2022-07-23T08:18:46;24.20;49.80
820;DHT22;392;48.838;2.322;2022-07-23T08:21:14;24.30;49.30
820;DHT22;392;48.838;2.322;2022-07-23T08:23:41;24.30;49.90
820;DHT22;392;48.838;2.322;2022-07-23T08:26:10;24.40;49.00
820;DHT22;392;48.838;2.322;2022-07-23T08:28:37;24.50;48.40
820;DHT22;392;48.838;2.322;2022-07-23T08:31:05;24.50;47.40
820;DHT22;392;48.838;2.322;2022-07-23T08:33:32;24.40;48.30
820;DHT22;392;48.838;2.322;2022-07-23T08:36:00;24.40;48.60
820;DHT22;392;48.838;2.322;2022-07-23T08:38:28;24.40;47.90
820;DHT22;392;48.838;2.322;2022-07-23T08:40:56;24.40;47.50
820;DHT22;392;48.838;2.322;2022-07-23T08:43:26;24.30;48.50
820;DHT22;392;48.838;2.322;2022-07-23T08:45:57;24.20;48.60
820;DHT22;392;48.838;2.322;2022-07-23T08:48:27;24.30;48.60
820;DHT22;392;48.838;2.322;2022-07-23T08:50:58;24.20;48.80
820;DHT22;392;48.838;2.322;2022-07-23T08:53:28;24.10;48.20
820;DHT22;392;48.838;2.322;2022-07-23T08:55:58;24.10;48.30
820;DHT22;392;48.838;2.322;2022-07-23T08:58:29;24.00;48.50
820;DHT22;392;48.838;2.322;2022-07-23T09:00:57;24.00;49.30
820;DHT22;392;48.838;2.322;2022-07-23T09:03:27;24.00;49.50
820;DHT22;392;48.838;2.322;2022-07-23T09:05:56;24.00;49.00
820;DHT22;392;48.838;2.322;2022-07-23T09:08:24;24.20;48.20
820;DHT22;392;48.838;2.322;2022-07-23T09:10:54;24.30;47.80
820;DHT22;392;48.838;2.322;2022-07-23T09:13:33;24.40;46.60
820;DHT22;392;48.838;2.322;2022-07-23T09:16:04;24.60;45.30
820;DHT22;392;48.838;2.322;2022-07-23T09:18:41;24.80;43.80
820;DHT22;392;48.838;2.322;2022-07-23T09:21:12;24.90;43.40
820;DHT22;392;48.838;2.322;2022-07-23T09:23:43;25.00;42.80
820;DHT22;392;48.838;2.322;2022-07-23T09:26:25;25.20;41.90
820;DHT22;392;48.838;2.322;2022-07-23T09:29:03;25.40;40.90
820;DHT22;392;48.838;2.322;2022-07-23T09:31:35;25.60;40.70
820;DHT22;392;48.838;2.322;2022-07-23T09:34:12;25.80;38.30
820;DHT22;392;48.838;2.322;2022-07-23T09:36:42;25.90;38.80
820;DHT22;392;48.838;2.322;2022-07-23T09:39:11;26.00;38.20
820;DHT22;392;48.838;2.322;2022-07-23T09:41:42;26.20;37.40
820;DHT22;392;48.838;2.322;2022-07-23T09:44:14;26.30;36.60
820;DHT22;392;48.838;2.322;2022-07-23T09:46:44;26.40;36.50
820;DHT22;392;48.838;2.322;2022-07-23T09:49:15;26.60;35.50
820;DHT22;392;48.838;2.322;2022-07-23T09:51:48;26.90;34.60
820;DHT22;392;48.838;2.322;2022-07-23T09:54:35;27.30;33.70
820;DHT22;392;48.838;2.322;2022-07-23T09:57:05;28.30;31.30
820;DHT22;392;48.838;2.322;2022-07-23T09:59:39;29.10;28.00
820;DHT22;392;48.838;2.322;2022-07-23T10:02:09;29.20;27.40
820;DHT22;392;48.838;2.322;2022-07-23T10:04:53;28.90;27.50
820;DHT22;392;48.838;2.322;2022-07-23T10:07:32;28.60;28.00
820;DHT22;392;48.838;2.322;2022-07-23T10:10:40;28.30;28.70
820;DHT22;392;48.838;2.322;2022-07-23T10:13:37;27.80;29.60
820;DHT22;392;48.838;2.322;2022-07-23T10:16:21;27.40;31.00
820;DHT22;392;48.838;2.322;2022-07-23T10:18:49;27.50;31.90
820;DHT22;392;48.838;2.322;2022-07-23T10:21:21;27.70;30.60
820;DHT22;392;48.838;2.322;2022-07-23T10:24:01;28.00;29.80
820;DHT22;392;48.838;2.322;2022-07-23T10:26:47;28.30;29.10
820;DHT22;392;48.838;2.322;2022-07-23T10:29:29;28.30;28.80
820;DHT22;392;48.838;2.322;2022-07-23T10:32:17;27.60;30.00
820;DHT22;392;48.838;2.322;2022-07-23T10:34:55;27.20;32.30
820;DHT22;392;48.838;2.322;2022-07-23T10:37:31;27.30;31.40
820;DHT22;392;48.838;2.322;2022-07-23T10:40:09;27.10;32.40
820;DHT22;392;48.838;2.322;2022-07-23T10:42:38;27.30;32.00
820;DHT22;392;48.838;2.322;2022-07-23T10:45:31;27.60;31.60
820;DHT22;392;48.838;2.322;2022-07-23T10:48:16;27.60;30.80
820;DHT22;392;48.838;2.322;2022-07-23T10:51:07;27.20;32.00
820;DHT22;392;48.838;2.322;2022-07-23T10:53:56;27.10;32.60
820;DHT22;392;48.838;2.322;2022-07-23T10:57:04;27.10;33.10
820;DHT22;392;48.838;2.322;2022-07-23T11:02:46;26.90;33.10
820;DHT22;392;48.838;2.322;2022-07-23T11:05:17;26.70;33.40
820;DHT22;392;48.838;2.322;2022-07-23T11:08:14;26.60;34.20
820;DHT22;392;48.838;2.322;2022-07-23T11:10:45;26.60;34.30
820;DHT22;392;48.838;2.322;2022-07-23T11:13:36;26.50;34.50
820;DHT22;392;48.838;2.322;2022-07-23T11:16:07;26.40;34.40
820;DHT22;392;48.838;2.322;2022-07-23T11:19:07;26.40;34.50
820;DHT22;392;48.838;2.322;2022-07-23T11:21:47;26.30;34.70
820;DHT22;392;48.838;2.322;2022-07-23T11:24:19;26.40;34.60
820;DHT22;392;48.838;2.322;2022-07-23T11:26:59;26.50;34.10
820;DHT22;392;48.838;2.322;2022-07-23T11:29:47;26.50;34.10
820;DHT22;392;48.838;2.322;2022-07-23T11:32:34;26.60;33.90
820;DHT22;392;48.838;2.322;2022-07-23T11:35:22;26.60;34.00
820;DHT22;392;48.838;2.322;2022-07-23T11:37:53;26.60;33.30
820;DHT22;392;48.838;2.322;2022-07-23T11:40:25;26.70;33.10
820;DHT22;392;48.838;2.322;2022-07-23T11:42:55;26.80;32.80
820;DHT22;392;48.838;2.322;2022-07-23T11:45:29;27.00;32.20
820;DHT22;392;48.838;2.322;2022-07-23T11:47:57;27.20;31.40
820;DHT22;392;48.838;2.322;2022-07-23T11:50:25;27.50;30.60
820;DHT22;392;48.838;2.322;2022-07-23T11:52:54;27.50;29.80
820;DHT22;392;48.838;2.322;2022-07-23T11:55:22;27.50;30.00
820;DHT22;392;48.838;2.322;2022-07-23T11:57:51;27.50;29.60
820;DHT22;392;48.838;2.322;2022-07-23T12:00:21;27.30;30.10
820;DHT22;392;48.838;2.322;2022-07-23T12:02:51;27.00;30.80
820;DHT22;392;48.838;2.322;2022-07-23T12:05:21;26.80;31.70
820;DHT22;392;48.838;2.322;2022-07-23T12:07:51;26.90;33.20
820;DHT22;392;48.838;2.322;2022-07-23T12:10:22;27.60;30.40
820;DHT22;392;48.838;2.322;2022-07-23T12:12:52;28.20;28.60
820;DHT22;392;48.838;2.322;2022-07-23T12:15:23;28.40;27.40
820;DHT22;392;48.838;2.322;2022-07-23T12:17:52;28.40;27.50
820;DHT22;392;48.838;2.322;2022-07-23T12:20:22;28.40;27.50
820;DHT22;392;48.838;2.322;2022-07-23T12:22:55;28.50;27.20
820;DHT22;392;48.838;2.322;2022-07-23T12:25:28;28.50;27.40
820;DHT22;392;48.838;2.322;2022-07-23T12:28:02;28.20;27.70
820;DHT22;392;48.838;2.322;2022-07-23T12:30:33;28.20;28.20
820;DHT22;392;48.838;2.322;2022-07-23T12:33:02;28.80;27.30
820;DHT22;392;48.838;2.322;2022-07-23T12:35:35;29.60;25.70
820;DHT22;392;48.838;2.322;2022-07-23T12:38:06;30.20;24.90
820;DHT22;392;48.838;2.322;2022-07-23T12:40:36;30.10;24.80
820;DHT22;392;48.838;2.322;2022-07-23T12:43:11;30.00;23.40
820;DHT22;392;48.838;2.322;2022-07-23T12:45:48;29.40;24.20
820;DHT22;392;48.838;2.322;2022-07-23T12:48:26;29.40;24.30
820;DHT22;392;48.838;2.322;2022-07-23T12:50:56;29.40;24.40
820;DHT22;392;48.838;2.322;2022-07-23T12:53:27;29.40;25.20
820;DHT22;392;48.838;2.322;2022-07-23T12:56:05;29.60;24.30
820;DHT22;392;48.838;2.322;2022-07-23T12:58:44;30.00;23.30
820;DHT22;392;48.838;2.322;2022-07-23T13:01:23;30.50;22.20
820;DHT22;392;48.838;2.322;2022-07-23T13:04:02;31.00;21.50
820;DHT22;392;48.838;2.322;2022-07-23T13:06:33;31.60;20.00
820;DHT22;392;48.838;2.322;2022-07-23T13:09:02;31.80;19.10
820;DHT22;392;48.838;2.322;2022-07-23T13:11:32;31.90;18.80
820;DHT22;392;48.838;2.322;2022-07-23T13:14:00;31.90;18.60
820;DHT22;392;48.838;2.322;2022-07-23T13:16:28;32.00;18.50
820;DHT22;392;48.838;2.322;2022-07-23T13:18:57;32.10;18.60
820;DHT22;392;48.838;2.322;2022-07-23T13:21:25;31.90;18.60
820;DHT22;392;48.838;2.322;2022-07-23T13:23:53;31.70;18.80
820;DHT22;392;48.838;2.322;2022-07-23T13:26:21;31.20;19.60
820;DHT22;392;48.838;2.322;2022-07-23T13:28:50;31.00;20.00
820;DHT22;392;48.838;2.322;2022-07-23T13:31:19;30.70;20.40
820;DHT22;392;48.838;2.322;2022-07-23T13:33:46;30.50;20.70
820;DHT22;392;48.838;2.322;2022-07-23T13:36:14;30.20;20.90
820;DHT22;392;48.838;2.322;2022-07-23T13:38:41;30.00;21.70
820;DHT22;392;48.838;2.322;2022-07-23T13:41:10;29.90;21.80
820;DHT22;392;48.838;2.322;2022-07-23T13:43:37;29.70;22.00
820;DHT22;392;48.838;2.322;2022-07-23T13:46:06;29.60;22.40
820;DHT22;392;48.838;2.322;2022-07-23T13:48:33;29.50;22.40
820;DHT22;392;48.838;2.322;2022-07-23T13:51:01;29.40;22.40
820;DHT22;392;48.838;2.322;2022-07-23T13:53:28;29.40;22.20
820;DHT22;392;48.838;2.322;2022-07-23T13:55:56;29.30;22.30
820;DHT22;392;48.838;2.322;2022-07-23T13:58:23;29.10;22.50
820;DHT22;392;48.838;2.322;2022-07-23T14:00:52;29.00;22.60
820;DHT22;392;48.838;2.322;2022-07-23T14:03:22;28.90;22.60
820;DHT22;392;48.838;2.322;2022-07-23T14:05:50;28.80;22.90
820;DHT22;392;48.838;2.322;2022-07-23T14:08:17;28.60;23.20
820;DHT22;392;48.838;2.322;2022-07-23T14:10:45;28.40;23.70
820;DHT22;392;48.838;2.322;2022-07-23T14:13:12;28.30;23.90
820;DHT22;392;48.838;2.322;2022-07-23T14:15:39;28.10;23.60
820;DHT22;392;48.838;2.322;2022-07-23T14:18:07;27.90;23.80
820;DHT22;392;48.838;2.322;2022-07-23T14:20:35;27.70;24.30
820;DHT22;392;48.838;2.322;2022-07-23T14:23:03;27.60;24.80
820;DHT22;392;48.838;2.322;2022-07-23T14:25:30;27.60;24.80
820;DHT22;392;48.838;2.322;2022-07-23T14:27:57;27.50;26.00
820;DHT22;392;48.838;2.322;2022-07-23T14:30:25;27.50;24.70
820;DHT22;392;48.838;2.322;2022-07-23T14:33:12;27.60;24.70
820;DHT22;392;48.838;2.322;2022-07-23T14:35:42;27.60;24.80
820;DHT22;392;48.838;2.322;2022-07-23T14:38:09;27.70;24.90
820;DHT22;392;48.838;2.322;2022-07-23T14:40:37;27.70;24.90
820;DHT22;392;48.838;2.322;2022-07-23T14:43:04;27.70;24.90
820;DHT22;392;48.838;2.322;2022-07-23T14:45:32;27.70;24.30
820;DHT22;392;48.838;2.322;2022-07-23T14:48:05;27.70;24.80
820;DHT22;392;48.838;2.322;2022-07-23T14:50:33;27.70;24.60
820;DHT22;392;48.838;2.322;2022-07-23T14:53:01;27.70;24.50
820;DHT22;392;48.838;2.322;2022-07-23T14:55:30;27.70;24.20
820;DHT22;392;48.838;2.322;2022-07-23T14:57:57;27.70;24.30
820;DHT22;392;48.838;2.322;2022-07-23T15:00:25;27.70;24.40
820;DHT22;392;48.838;2.322;2022-07-23T15:02:53;27.80;24.50
820;DHT22;392;48.838;2.322;2022-07-23T15:05:21;27.90;24.40
820;DHT22;392;48.838;2.322;2022-07-23T15:07:48;27.90;24.30
820;DHT22;392;48.838;2.322;2022-07-23T15:10:17;28.00;24.00
820;DHT22;392;48.838;2.322;2022-07-23T15:12:45;27.90;24.10
820;DHT22;392;48.838;2.322;2022-07-23T15:15:12;27.90;24.10
820;DHT22;392;48.838;2.322;2022-07-23T15:17:39;27.90;24.10
820;DHT22;392;48.838;2.322;2022-07-23T15:20:08;27.90;23.50
820;DHT22;392;48.838;2.322;2022-07-23T15:22:35;28.00;23.60
820;DHT22;392;48.838;2.322;2022-07-23T15:25:03;28.00;23.30
820;DHT22;392;48.838;2.322;2022-07-23T15:27:33;28.10;23.20
820;DHT22;392;48.838;2.322;2022-07-23T15:30:00;28.00;23.30
820;DHT22;392;48.838;2.322;2022-07-23T15:32:27;27.90;23.30
820;DHT22;392;48.838;2.322;2022-07-23T15:34:55;27.90;23.50
820;DHT22;392;48.838;2.322;2022-07-23T15:37:22;28.00;23.30
820;DHT22;392;48.838;2.322;2022-07-23T15:39:50;28.00;22.70
820;DHT22;392;48.838;2.322;2022-07-23T15:42:17;28.10;22.70
820;DHT22;392;48.838;2.322;2022-07-23T15:44:46;28.10;22.80
820;DHT22;392;48.838;2.322;2022-07-23T15:47:16;28.00;22.90
820;DHT22;392;48.838;2.322;2022-07-23T15:49:45;28.10;23.00
820;DHT22;392;48.838;2.322;2022-07-23T15:52:13;28.10;22.50
820;DHT22;392;48.838;2.322;2022-07-23T15:54:41;28.20;22.50
820;DHT22;392;48.838;2.322;2022-07-23T15:57:08;28.20;22.20
820;DHT22;392;48.838;2.322;2022-07-23T15:59:36;28.20;22.60
820;DHT22;392;48.838;2.322;2022-07-23T16:02:04;28.20;21.40
820;DHT22;392;48.838;2.322;2022-07-23T16:04:32;28.30;21.70
820;DHT22;392;48.838;2.322;2022-07-23T16:07:00;28.40;21.10
820;DHT22;392;48.838;2.322;2022-07-23T16:09:28;28.50;21.50
820;DHT22;392;48.838;2.322;2022-07-23T16:11:55;28.50;21.20
820;DHT22;392;48.838;2.322;2022-07-23T16:14:22;28.50;21.10
820;DHT22;392;48.838;2.322;2022-07-23T16:16:49;28.50;21.10
820;DHT22;392;48.838;2.322;2022-07-23T16:19:18;28.50;21.10
820;DHT22;392;48.838;2.322;2022-07-23T16:21:46;28.50;21.00
820;DHT22;392;48.838;2.322;2022-07-23T16:24:13;28.50;20.60
820;DHT22;392;48.838;2.322;2022-07-23T16:26:40;28.40;21.00
820;DHT22;392;48.838;2.322;2022-07-23T16:29:08;28.40;20.40
820;DHT22;392;48.838;2.322;2022-07-23T16:31:35;28.50;21.10
820;DHT22;392;48.838;2.322;2022-07-23T16:34:02;28.50;20.60
820;DHT22;392;48.838;2.322;2022-07-23T16:36:31;28.50;20.50
820;DHT22;392;48.838;2.322;2022-07-23T16:39:00;28.50;20.60
820;DHT22;392;48.838;2.322;2022-07-23T16:41:27;28.50;20.20
820;DHT22;392;48.838;2.322;2022-07-23T16:43:55;28.50;20.40
820;DHT22;392;48.838;2.322;2022-07-23T16:46:22;28.60;20.30
820;DHT22;392;48.838;2.322;2022-07-23T16:48:49;28.60;19.90
820;DHT22;392;48.838;2.322;2022-07-23T16:51:17;28.60;20.20
820;DHT22;392;48.838;2.322;2022-07-23T16:53:45;28.60;19.70
820;DHT22;392;48.838;2.322;2022-07-23T16:56:13;28.50;19.70